1 października 2022

Czas Kod Pogoda Temp. Widoczność Sufit Wiatr METAR/SPECI
12:00
V
24 °C 10 km+ 5.000 ft 090° 090° 8 kt METAR FIMP 010800Z 09008KT 9999 SCT017 BKN050 24/17 Q1021
11:00
V
25 °C 10 km+ - 070° 070° 15 kt METAR FIMP 010700Z 07015KT 9999 VCSH SCT015 SCT050 25/17 Q1021
10:00
V
24 °C 10 km+ - 130° 130° 10 kt METAR FIMP 010600Z 13010KT 9999 SCT016 SCT050 24/17 Q1021
09:00
M
23 °C 10 km+ 1.700 ft 130° 130° 8 kt METAR FIMP 010500Z 13008KT 9999 BKN017 23/17 Q1022
08:00
M
20 °C 6 km 1.500 ft 100° 100° 7 kt METAR FIMP 010400Z 10007KT 6000 VCSH BKN015 BKN050 20/17 Q1022
07:00
M
21 °C 7 km 1.500 ft 090° 090° 11 kt METAR FIMP 010300Z 09011KT 7000 VCSH BKN015 SCT050 21/15 Q1021
06:00
M
21 °C 10 km+ 1.700 ft 140° 140° 10 kt METAR FIMP 010200Z 14010KT 9999 BKN017 SCT050 21/16 Q1020
05:00
V
21 °C 10 km+ - 120° 120° 7 kt METAR FIMP 010100Z 12007KT 9999 SCT017 21/15 Q1020
04:00
M
20 °C 10 km+ 1.600 ft 110° 110° 9 kt METAR FIMP 010000Z 11009KT 9999 VCSH BKN016 SCT050 20/17 Q1019
03:00
M
21 °C 10 km+ 1.600 ft 100° 100° 8 kt METAR FIMP 302300Z 10008KT 9999 VCSH BKN016 SCT050 21/16 Q1020
01:00
V
21 °C 10 km+ - 120° 120° 8 kt METAR FIMP 302100Z 12008KT 9999 SCT017 21/17 Q1020
00:00
V
21 °C 10 km+ - 150° 150° 6 kt METAR FIMP 302000Z 15006KT 9999 VCSH SCT017 21/17 Q1021

30 września 2022

Czas Kod Pogoda Temp. Widoczność Sufit Wiatr METAR/SPECI
23:00
M
21 °C 10 km+ 1.700 ft 140° 140° 6 kt METAR FIMP 301900Z 14006KT 9999 VCSH BKN017 21/18 Q1021
22:00
V
21 °C 10 km+ - 150° 150° 4 kt METAR FIMP 301800Z 15004KT 9999 SCT017 21/17 Q1021
21:00
V
21 °C 10 km+ - 140° 140° 5 kt METAR FIMP 301700Z 14005KT 9999 SCT017 21/17 Q1020
20:00
M
22 °C 10 km+ 1.600 ft 160° 160° 5 kt METAR FIMP 301600Z 16005KT 9999 VCSH BKN016 22/17 Q1020
19:00
V
21 °C 10 km+ - 150° 150° 3 kt METAR FIMP 301500Z 15003KT 9999 FEW019 21/17 Q1019
18:00
V
22 °C 10 km+ - 150° 150° 6 kt METAR FIMP 301400Z 15006KT 9999 SCT019 22/17 Q1019
17:00
V
23 °C 10 km+ - 130° 130° 5 kt METAR FIMP 301300Z 13005KT 9999 SCT019 23/17 Q1018
16:00
V
24 °C 10 km+ - 110° 110° 7 kt METAR FIMP 301200Z 11007KT 9999 SCT019 24/17 Q1017
15:00
V
24 °C 10 km+ - 110° 110° 7 kt METAR FIMP 301100Z 11007KT 9999 SCT019 24/17 Q1017
14:00
V
24 °C 10 km+ - 110° 110° 9 kt METAR FIMP 301000Z 11009KT 9999 SCT018 24/17 Q1018
13:00
V
25 °C 10 km+ - 130° 130° 10 kt METAR FIMP 300900Z 13010KT 9999 SCT018 25/17 Q1018
12:00
V
25 °C 10 km+ - 140° 140° 10 kt METAR FIMP 300800Z 14010KT 9999 VCSH SCT017 25/17 Q1019
11:00
V
25 °C 10 km+ - 130° 130° 10 kt METAR FIMP 300700Z 13010KT 9999 SCT018 25/17 Q1020
10:00
V
24 °C 10 km+ - 130° 130° 10 kt METAR FIMP 300600Z 13010KT 9999 SCT018 24/17 Q1020
09:00
V
23 °C 10 km+ - 120° 120° 10 kt METAR FIMP 300500Z 12010KT 9999 SCT017 23/17 Q1020
08:00
V
22 °C 10 km+ - 120° 120° 7 kt METAR FIMP 300400Z 12007KT 9999 SCT017 22/17 Q1020
07:00
V
21 °C 10 km+ - 110° 110° 7 kt METAR FIMP 300300Z 11007KT 9999 VCSH SCT015 21/17 Q1019
06:00
M
20 °C 8 km 1.500 ft 110° 110° 5 kt METAR FIMP 300200Z 11005KT 8000 VCSH BKN015 20/18 Q1019
05:00
V
20 °C 10 km+ 5.000 ft 110° 110° 7 kt METAR FIMP 300100Z 11007KT 9999 VCSH SCT015 BKN050 20/17 Q1019
04:00
M
19 °C 10 km+ 1.500 ft 110° 110° 4 kt METAR FIMP 300000Z 11004KT 9999 VCSH BKN015 SCT050 19/18 Q1018
03:00
M
20 °C 6 km 1.500 ft 120° 120° 12 kt METAR FIMP 292300Z 12012KT 6000 -SHRA BKN015 SCT050 20/18 Q1019
02:00
M
20 °C 10 km+ 1.600 ft 150° 150° 7 kt METAR FIMP 292200Z 15007KT 9999 VCSH BKN016 SCT050 20/18 Q1019
01:00
V
20 °C 10 km+ - 190° 190° 6 kt METAR FIMP 292100Z 19006KT 9999 VCSH SCT016 SCT050 20/18 Q1019
00:00
M
21 °C 10 km+ 1.500 ft 120° 120° 9 kt METAR FIMP 292000Z 12009KT 9999 -SHRA BKN015 SCT050 21/18 Q1020

29 września 2022

Czas Kod Pogoda Temp. Widoczność Sufit Wiatr METAR/SPECI
23:00
V
21 °C 10 km+ - 140° 140° 6 kt METAR FIMP 291900Z 14006KT 9999 SCT017 SCT050 21/16 Q1020
22:00
V
21 °C 10 km+ - 160° 160° 9 kt METAR FIMP 291800Z 16009KT 9999 SCT017 SCT050 21/17 Q1020
21:00
M
21 °C 10 km+ 1.700 ft 170° 170° 7 kt METAR FIMP 291700Z 17007KT 9999 BKN017 21/16 Q1020
20:00
V
21 °C 10 km+ - 170° 170° 7 kt METAR FIMP 291600Z 17007KT 9999 FEW018 21/16 Q1020
19:00
V
21 °C 10 km+ - 170° 170° 10 kt METAR FIMP 291500Z 17010KT 9999 SCT017 21/16 Q1019
18:00
V
22 °C 10 km+ - 160° 160° 10 kt METAR FIMP 291400Z 16010KT 9999 SCT017 22/16 Q1018
17:00
M
23 °C 10 km+ 1.700 ft 150° 150° 11 kt METAR FIMP 291300Z 15011KT 9999 BKN017 23/15 Q1018
16:00
V
23 °C 10 km+ - 150° 150° 9 kt METAR FIMP 291200Z 15009KT 9999 SCT018 23/16 Q1018
15:00
V
24 °C 10 km+ - 150° 150° 8 kt METAR FIMP 291100Z 15008KT 9999 SCT018 24/15 Q1018
14:00
V
24 °C 10 km+ - 130° 130° 11 kt METAR FIMP 291000Z 13011KT 9999 SCT019 24/15 Q1019
13:00
M
24 °C 10 km+ 1.800 ft 160° 160° 13 kt METAR FIMP 290900Z 16013KT 9999 BKN018 24/15 Q1019
Starsze dane

My i osoby trzecie śledzimy twoje zachowanie w internecie na naszej stronie za pomocą plików cookie. Jeśli kontynuujesz, zakładamy, że zgadzasz się z naszą polityką plików cookie. Dowiedz się więcej